createdAt,value
2022-08-20T00:02:10.995Z,3.00
2022-08-20T00:04:41.211Z,2.97
2022-08-20T00:07:09.078Z,2.57
2022-08-20T00:09:37.106Z,3.03
2022-08-20T00:12:06.240Z,2.90
2022-08-20T00:14:34.683Z,2.87
2022-08-20T00:17:02.663Z,2.50
2022-08-20T00:19:30.930Z,2.63
2022-08-20T00:22:00.230Z,2.43
2022-08-20T00:24:28.145Z,2.53
2022-08-20T00:26:56.019Z,2.70
2022-08-20T00:29:23.938Z,2.67
2022-08-20T00:31:51.904Z,2.57
2022-08-20T00:34:20.338Z,2.37
2022-08-20T00:36:48.848Z,2.30
2022-08-20T00:39:18.068Z,2.83
2022-08-20T00:41:46.030Z,2.40
2022-08-20T00:44:16.876Z,2.67
2022-08-20T00:46:48.290Z,2.60
2022-08-20T00:49:22.069Z,2.53
2022-08-20T00:51:55.533Z,2.37
2022-08-20T00:54:31.073Z,2.50
2022-08-20T00:57:03.494Z,2.50
2022-08-20T00:59:35.460Z,2.60
2022-08-20T01:02:04.626Z,2.20
2022-08-20T01:04:35.155Z,2.10
2022-08-20T01:07:05.272Z,2.20
2022-08-20T01:09:57.863Z,2.30
2022-08-20T01:12:25.099Z,2.27
2022-08-20T01:14:53.459Z,2.37
2022-08-20T01:17:24.819Z,2.10
2022-08-20T01:19:58.624Z,2.27
2022-08-20T01:22:51.073Z,2.20
2022-08-20T01:25:26.343Z,2.20
2022-08-20T01:27:57.282Z,2.40
2022-08-20T01:30:29.811Z,1.90
2022-08-20T01:32:57.962Z,1.80
2022-08-20T01:35:27.160Z,2.10
2022-08-20T01:37:55.844Z,2.00
2022-08-20T01:40:37.028Z,2.40
2022-08-20T01:43:08.374Z,1.93
2022-08-20T01:45:40.154Z,2.13
2022-08-20T01:48:08.787Z,2.10
2022-08-20T01:50:42.865Z,1.87
2022-08-20T01:53:21.663Z,1.97
2022-08-20T01:55:49.590Z,1.40
2022-08-20T01:58:18.935Z,1.80
2022-08-20T02:00:47.305Z,1.73
2022-08-20T02:03:15.279Z,2.00
2022-08-20T02:05:43.212Z,1.87
2022-08-20T02:08:11.101Z,1.80
2022-08-20T02:10:39.014Z,1.93
2022-08-20T02:13:09.756Z,2.00
2022-08-20T02:15:39.763Z,1.70
2022-08-20T02:18:14.801Z,1.60
2022-08-20T02:20:44.110Z,1.43
2022-08-20T02:23:13.003Z,1.57
2022-08-20T02:25:43.094Z,1.53
2022-08-20T02:28:13.976Z,1.47
2022-08-20T02:30:46.955Z,1.27
2022-08-20T02:33:17.226Z,1.70
2022-08-20T02:35:48.504Z,1.63
2022-08-20T02:38:17.413Z,1.90
2022-08-20T02:40:46.582Z,2.30
2022-08-20T02:43:15.470Z,1.70
2022-08-20T02:45:44.788Z,1.90
2022-08-20T02:48:20.615Z,1.60
2022-08-20T02:50:53.302Z,2.10
2022-08-20T02:53:21.271Z,1.50
2022-08-20T02:55:49.326Z,1.60
2022-08-20T02:58:17.360Z,1.87
2022-08-20T03:00:46.892Z,1.60
2022-08-20T03:03:15.576Z,2.07
2022-08-20T03:05:45.701Z,2.30
2022-08-20T03:08:15.709Z,1.50
2022-08-20T03:10:46.264Z,2.17
2022-08-20T03:13:15.163Z,1.70
2022-08-20T03:15:46.014Z,1.80
2022-08-20T03:18:16.815Z,1.70
2022-08-20T03:20:46.330Z,1.60
2022-08-20T03:23:21.296Z,1.37
2022-08-20T03:25:50.018Z,2.20
2022-08-20T03:28:18.314Z,1.83
2022-08-20T03:30:46.732Z,1.57
2022-08-20T03:33:16.411Z,1.60
2022-08-20T03:35:44.555Z,2.03
2022-08-20T03:38:14.905Z,2.00
2022-08-20T03:40:43.886Z,1.50
2022-08-20T03:43:12.430Z,1.63
2022-08-20T03:45:42.630Z,1.90
2022-08-20T03:48:12.685Z,1.67
2022-08-20T03:50:42.462Z,1.80
2022-08-20T03:53:13.165Z,1.80
2022-08-20T03:55:45.478Z,1.97
2022-08-20T03:58:34.741Z,1.83
2022-08-20T04:01:05.914Z,1.57
2022-08-20T04:03:34.112Z,1.90
2022-08-20T04:06:03.362Z,1.60
2022-08-20T04:08:31.570Z,1.63
2022-08-20T04:11:00.637Z,1.93
2022-08-20T04:13:30.829Z,2.10
2022-08-20T04:15:58.799Z,1.90
2022-08-20T04:18:27.459Z,1.83
2022-08-20T04:20:55.999Z,1.67
2022-08-20T04:23:25.317Z,1.60
2022-08-20T04:25:54.313Z,1.83
2022-08-20T04:28:28.376Z,2.10
2022-08-20T04:30:57.376Z,1.73
2022-08-20T04:33:35.418Z,1.77
2022-08-20T04:36:06.038Z,1.67
2022-08-20T04:38:49.869Z,1.90
2022-08-20T04:41:22.709Z,1.90
2022-08-20T04:43:53.621Z,1.80
2022-08-20T04:46:23.252Z,1.60
2022-08-20T04:48:51.134Z,1.85
2022-08-20T04:51:22.989Z,1.88
2022-08-20T04:53:54.306Z,1.60
2022-08-20T04:56:24.286Z,1.70
2022-08-20T04:58:53.763Z,1.70
2022-08-20T05:01:23.605Z,1.67
2022-08-20T05:03:53.585Z,1.63
2022-08-20T05:06:23.427Z,1.70
2022-08-20T05:08:53.356Z,1.50
2022-08-20T05:11:33.430Z,1.63
2022-08-20T05:14:05.706Z,1.30
2022-08-20T05:16:38.284Z,1.77
2022-08-20T05:19:07.035Z,1.57
2022-08-20T05:21:35.007Z,1.90
2022-08-20T05:24:04.824Z,1.83
2022-08-20T05:26:33.311Z,1.73
2022-08-20T05:29:02.390Z,1.47
2022-08-20T05:31:33.330Z,1.43
2022-08-20T05:34:02.497Z,1.10
2022-08-20T05:36:30.796Z,2.33
2022-08-20T05:38:59.091Z,1.80
2022-08-20T05:41:30.470Z,1.60
2022-08-20T05:44:01.203Z,1.30
2022-08-20T05:46:29.587Z,1.83
2022-08-20T05:48:59.775Z,2.00
2022-08-20T05:51:28.398Z,2.00
2022-08-20T05:53:59.269Z,2.10
2022-08-20T05:56:30.642Z,1.43
2022-08-20T05:59:00.544Z,1.40
2022-08-20T06:01:28.652Z,1.93
2022-08-20T06:04:13.925Z,1.03
2022-08-20T06:06:45.689Z,1.63
2022-08-20T06:09:15.402Z,1.07
2022-08-20T06:11:44.640Z,1.47
2022-08-20T06:14:12.556Z,1.40
2022-08-20T06:16:50.401Z,1.73
2022-08-20T06:19:26.388Z,1.40
2022-08-20T06:21:56.432Z,1.27
2022-08-20T06:24:24.893Z,1.20
2022-08-20T06:26:58.638Z,1.40
2022-08-20T06:29:27.120Z,1.40
2022-08-20T06:31:56.319Z,1.50
2022-08-20T06:34:28.264Z,1.23
2022-08-20T06:36:56.658Z,1.63
2022-08-20T06:39:26.083Z,1.27
2022-08-20T06:41:55.607Z,1.50
2022-08-20T06:44:24.856Z,1.80
2022-08-20T06:46:52.939Z,1.73
2022-08-20T06:49:20.912Z,1.83
2022-08-20T06:51:52.099Z,1.20
2022-08-20T06:54:20.332Z,1.50
2022-08-20T06:56:56.684Z,1.27
2022-08-20T06:59:25.937Z,1.20
2022-08-20T07:01:56.381Z,1.40
2022-08-20T07:04:24.456Z,1.53
2022-08-20T07:06:52.386Z,1.23
2022-08-20T07:09:20.600Z,1.30
2022-08-20T07:11:49.276Z,1.40
2022-08-20T07:14:18.325Z,1.63
2022-08-20T07:16:48.198Z,1.43
2022-08-20T07:19:16.121Z,1.43
2022-08-20T07:21:44.081Z,1.60
2022-08-20T07:24:12.553Z,1.30
2022-08-20T07:26:40.499Z,1.40
2022-08-20T07:29:08.665Z,1.40
2022-08-20T07:31:54.375Z,1.40
2022-08-20T07:34:23.714Z,1.50
2022-08-20T07:36:51.741Z,1.30
2022-08-20T07:39:20.492Z,1.50
2022-08-20T07:42:02.923Z,1.83
2022-08-20T07:44:31.306Z,1.20
2022-08-20T07:46:59.852Z,3.23
2022-08-20T07:49:29.953Z,3.60
2022-08-20T07:51:57.862Z,3.43
2022-08-20T07:54:25.776Z,3.30
2022-08-20T07:57:02.536Z,2.00
2022-08-20T07:59:31.107Z,1.47
2022-08-20T08:01:59.475Z,1.63
2022-08-20T08:04:28.793Z,1.23
2022-08-20T08:07:00.030Z,1.27
2022-08-20T08:09:29.758Z,1.60
2022-08-20T08:12:00.821Z,1.70
2022-08-20T08:14:35.044Z,1.83
2022-08-20T08:17:07.629Z,1.50
2022-08-20T08:19:41.442Z,1.50
2022-08-20T08:22:12.256Z,1.63
2022-08-20T08:24:41.485Z,1.03
2022-08-20T08:27:24.599Z,1.93
2022-08-20T08:29:52.473Z,1.60
2022-08-20T08:32:20.406Z,1.43
2022-08-20T08:34:49.811Z,1.77
2022-08-20T08:37:17.773Z,1.90
2022-08-20T08:39:45.791Z,1.80
2022-08-20T08:42:26.007Z,1.40
2022-08-20T08:44:54.502Z,1.20
2022-08-20T08:47:27.560Z,1.97
2022-08-20T08:50:06.464Z,1.90
2022-08-20T08:52:37.794Z,1.50
2022-08-20T08:55:08.890Z,1.50
2022-08-20T08:57:47.438Z,1.90
2022-08-20T09:00:21.469Z,1.80
2022-08-20T09:03:01.524Z,1.85
2022-08-20T09:08:17.341Z,1.80
2022-08-20T09:10:56.301Z,1.30
2022-08-20T09:13:25.141Z,1.70
2022-08-20T09:15:58.083Z,1.30
2022-08-20T09:21:32.754Z,1.70
2022-08-20T09:40:52.400Z,1.27
2022-08-20T09:46:33.902Z,1.97
2022-08-20T09:49:05.781Z,1.70
2022-08-20T09:55:03.185Z,1.27
2022-08-20T09:58:32.401Z,1.37
2022-08-20T10:05:06.152Z,1.40
2022-08-20T10:10:52.171Z,1.40
2022-08-20T10:13:22.983Z,1.77
2022-08-20T10:15:53.249Z,1.80
2022-08-20T10:18:24.256Z,1.93
2022-08-20T10:20:53.518Z,1.90
2022-08-20T10:23:32.340Z,2.10
2022-08-20T10:26:04.881Z,1.87
2022-08-20T10:28:32.791Z,12.43
2022-08-20T10:31:00.677Z,4.57
2022-08-20T10:33:28.866Z,2.77
2022-08-20T10:36:00.202Z,1.80
2022-08-20T10:38:28.568Z,2.87
2022-08-20T10:40:56.468Z,2.90
2022-08-20T10:43:24.564Z,1.70
2022-08-20T10:45:53.115Z,2.27
2022-08-20T10:48:21.728Z,1.80
2022-08-20T10:50:53.937Z,3.03
2022-08-20T10:53:28.201Z,2.15
2022-08-20T10:55:58.929Z,4.57
2022-08-20T10:58:29.017Z,3.65
2022-08-20T11:01:08.523Z,2.17
2022-08-20T11:03:39.150Z,2.10
2022-08-20T11:06:07.514Z,1.77
2022-08-20T11:08:37.041Z,1.60
2022-08-20T11:11:08.650Z,1.97
2022-08-20T11:13:37.852Z,1.80
2022-08-20T11:16:07.181Z,1.83
2022-08-20T11:18:36.173Z,1.93
2022-08-20T11:21:04.329Z,2.23
2022-08-20T11:23:41.582Z,1.70
2022-08-20T11:26:11.511Z,1.90
2022-08-20T11:28:40.155Z,2.60
2022-08-20T11:31:08.688Z,2.30
2022-08-20T11:34:01.900Z,2.13
2022-08-20T11:37:01.088Z,1.80
2022-08-20T11:43:59.484Z,1.88
2022-08-20T11:54:10.186Z,1.77
2022-08-20T11:56:46.089Z,1.50
2022-08-20T11:59:44.174Z,1.40
2022-08-20T12:09:24.695Z,1.80
2022-08-20T12:12:35.889Z,3.60
2022-08-20T12:15:24.952Z,3.13
2022-08-20T12:17:55.973Z,1.77
2022-08-20T12:20:32.454Z,1.90
2022-08-20T12:23:21.495Z,2.00
2022-08-20T15:01:14.503Z,2.70
2022-08-20T15:06:55.885Z,2.30
2022-08-20T15:17:55.170Z,2.13
2022-08-20T15:21:44.992Z,1.60
2022-08-20T15:24:21.832Z,1.95
2022-08-20T15:26:59.514Z,2.55
2022-08-20T15:29:28.319Z,1.92
2022-08-20T15:36:13.114Z,2.85
2022-08-20T15:42:10.817Z,2.17
2022-08-20T15:45:00.393Z,2.45
2022-08-20T15:47:55.478Z,1.88
2022-08-20T16:10:36.820Z,1.67
2022-08-20T16:16:05.522Z,3.22
2022-08-20T16:19:40.791Z,3.00
2022-08-20T16:25:09.203Z,1.85
2022-08-20T16:28:12.711Z,3.28
2022-08-20T16:34:20.163Z,2.45
2022-08-20T16:37:29.182Z,3.47
2022-08-20T16:40:49.894Z,3.45
2022-08-20T16:44:02.310Z,2.60
2022-08-20T17:01:10.596Z,2.33
2022-08-20T17:07:08.845Z,2.50
2022-08-20T17:42:29.373Z,1.83
2022-08-20T18:01:47.583Z,1.42
2022-08-20T18:04:17.357Z,1.70
2022-08-20T18:06:52.409Z,1.80
2022-08-20T18:09:30.728Z,1.25
2022-08-20T18:12:04.579Z,1.42
2022-08-20T18:14:47.217Z,1.20
2022-08-20T18:17:41.870Z,1.75
2022-08-20T18:20:25.920Z,1.35
2022-08-20T18:22:59.428Z,1.60
2022-08-20T18:25:33.604Z,1.40
2022-08-20T18:28:08.205Z,1.50
2022-08-20T18:30:36.638Z,1.40
2022-08-20T18:33:09.092Z,1.10
2022-08-20T18:35:39.369Z,1.40
2022-08-20T18:38:27.150Z,1.30
2022-08-20T18:41:05.691Z,1.58
2022-08-20T18:43:33.696Z,1.20
2022-08-20T18:46:11.704Z,1.13
2022-08-20T18:48:52.245Z,1.67
2022-08-20T18:51:25.581Z,1.40
2022-08-20T18:53:53.520Z,1.55
2022-08-20T18:56:32.587Z,1.35
2022-08-20T18:59:03.299Z,1.48
2022-08-20T19:01:35.206Z,1.70
2022-08-20T19:04:17.446Z,1.40
2022-08-20T19:06:52.410Z,1.58
2022-08-20T19:09:39.411Z,1.35
2022-08-20T19:12:24.236Z,2.03
2022-08-20T19:15:07.495Z,1.23
2022-08-20T19:17:56.291Z,1.50
2022-08-20T19:20:29.296Z,1.83
2022-08-20T19:23:04.962Z,1.60
2022-08-20T19:25:35.838Z,1.52
2022-08-20T19:28:08.180Z,1.73
2022-08-20T19:30:38.380Z,1.58
2022-08-20T19:33:07.881Z,1.63
2022-08-20T19:35:37.533Z,1.80
2022-08-20T19:38:08.229Z,1.20
2022-08-20T19:40:40.135Z,1.40
2022-08-20T19:43:15.683Z,1.58
2022-08-20T19:45:47.969Z,1.67
2022-08-20T19:48:29.953Z,1.60
2022-08-20T19:51:07.207Z,1.90
2022-08-20T19:53:38.032Z,2.00
2022-08-20T19:56:08.379Z,1.50
2022-08-20T19:58:37.317Z,1.80
2022-08-20T20:01:12.601Z,1.90
2022-08-20T20:03:40.586Z,1.65
2022-08-20T20:06:17.270Z,1.57
2022-08-20T20:08:51.071Z,2.05
2022-08-20T20:11:21.868Z,2.10
2022-08-20T20:13:49.932Z,2.10
2022-08-20T20:16:20.923Z,2.60
2022-08-20T20:19:09.078Z,2.17
2022-08-20T20:21:42.463Z,2.30
2022-08-20T20:24:11.628Z,2.22
2022-08-20T20:26:42.382Z,2.30
2022-08-20T20:29:13.043Z,2.40
2022-08-20T20:31:52.024Z,1.77
2022-08-20T20:34:27.573Z,2.60
2022-08-20T20:37:09.988Z,2.15
2022-08-20T20:39:39.965Z,2.07
2022-08-20T20:42:10.364Z,1.90
2022-08-20T20:44:40.279Z,2.15
2022-08-20T20:47:18.700Z,2.13
2022-08-20T20:49:51.373Z,1.83
2022-08-20T20:52:23.069Z,2.30
2022-08-20T20:54:51.771Z,1.58
2022-08-20T20:57:38.024Z,1.83
2022-08-20T21:00:09.413Z,1.87
2022-08-20T21:02:37.518Z,1.77
2022-08-20T21:05:06.231Z,1.90
2022-08-20T21:07:35.742Z,1.67
2022-08-20T21:10:04.214Z,1.73
2022-08-20T21:12:32.108Z,2.20
2022-08-20T21:15:00.048Z,1.80
2022-08-20T21:17:27.980Z,2.03
2022-08-20T21:19:56.019Z,2.20
2022-08-20T21:22:23.919Z,2.10
2022-08-20T21:24:53.332Z,2.25
2022-08-20T21:27:23.642Z,2.27
2022-08-20T21:29:52.080Z,2.10
2022-08-20T21:32:20.255Z,2.13
2022-08-20T21:34:48.553Z,2.10
2022-08-20T21:37:17.233Z,2.60
2022-08-20T21:39:45.430Z,2.40
2022-08-20T21:42:28.738Z,2.67
2022-08-20T21:44:57.936Z,2.20
2022-08-20T21:47:26.520Z,2.83
2022-08-20T21:49:55.055Z,2.57
2022-08-20T21:52:23.098Z,1.90
2022-08-20T21:54:50.993Z,2.47
2022-08-20T21:57:23.112Z,2.37
2022-08-20T21:59:51.222Z,2.53
2022-08-20T22:02:19.600Z,2.30
2022-08-20T22:04:47.561Z,2.63
2022-08-20T22:07:16.504Z,2.10
2022-08-20T22:09:44.500Z,2.10
2022-08-20T22:12:17.334Z,2.40
2022-08-20T22:14:48.139Z,2.17
2022-08-20T22:17:16.571Z,2.47
2022-08-20T22:19:44.788Z,2.37
2022-08-20T22:22:14.655Z,2.20
2022-08-20T22:24:43.129Z,2.30
2022-08-20T22:27:11.199Z,2.57
2022-08-20T22:29:39.790Z,2.50
2022-08-20T22:32:09.942Z,2.43
2022-08-20T22:34:40.162Z,2.70
2022-08-20T22:37:08.652Z,2.73
2022-08-20T22:39:36.668Z,3.00
2022-08-20T22:42:05.001Z,2.93
2022-08-20T22:44:33.378Z,3.43
2022-08-20T22:47:06.859Z,3.27
2022-08-20T22:49:41.513Z,3.73
2022-08-20T22:52:11.574Z,3.90
2022-08-20T22:54:39.671Z,4.07
2022-08-20T22:57:12.777Z,3.70
2022-08-20T22:59:47.096Z,4.10
2022-08-20T23:02:22.972Z,4.13
2022-08-20T23:04:52.591Z,4.20
2022-08-20T23:07:20.766Z,3.97
2022-08-20T23:09:48.729Z,3.93
2022-08-20T23:12:16.736Z,3.90
2022-08-20T23:14:44.747Z,4.43
2022-08-20T23:17:14.991Z,3.90
2022-08-20T23:19:45.319Z,4.33
2022-08-20T23:22:14.882Z,3.97
2022-08-20T23:24:42.854Z,4.10
2022-08-20T23:27:15.083Z,4.60
2022-08-20T23:29:43.100Z,4.17
2022-08-20T23:32:11.089Z,4.40
2022-08-20T23:34:39.072Z,4.20
2022-08-20T23:37:08.655Z,4.20
2022-08-20T23:39:38.079Z,4.00
2022-08-20T23:42:06.196Z,4.03
2022-08-20T23:44:34.163Z,3.97
2022-08-20T23:47:03.526Z,4.07
2022-08-20T23:49:32.788Z,4.23
2022-08-20T23:52:01.238Z,4.20
2022-08-20T23:54:30.905Z,4.20
2022-08-20T23:57:00.335Z,3.80
2022-08-20T23:59:28.302Z,3.93
